Time;durP1;ratioP1;P1;durP2;ratioP2;P2;SDS_P1;SDS_P2;PMS_P1;PMS_P2;Temp;Humidity;BMP_temperature;BMP_pressure;BME280_temperature;BME280_humidity;BME280_pressure;Samples;Min_cycle;Max_cycle;Signal;HPM_P1;HPM_P2
2023/04/03 00:01:07;;;;;;;7.10;6.40;;;4.20;99.90;;;;;;5009355;28;20426;-78
2023/04/03 00:03:33;;;;;;;9.30;7.57;;;4.10;99.90;;;;;;5009297;28;20679;-78
2023/04/03 00:05:59;;;;;;;7.90;7.00;;;4.00;99.90;;;;;;5009669;28;20445;-78
2023/04/03 00:08:25;;;;;;;8.33;7.50;;;3.90;99.90;;;;;;5007896;28;20206;-78
2023/04/03 00:10:51;;;;;;;11.40;8.20;;;4.00;99.90;;;;;;5009369;28;20958;-78
2023/04/03 00:13:17;;;;;;;9.80;7.53;;;4.00;99.90;;;;;;4994149;28;20187;-78
2023/04/03 00:15:43;;;;;;;7.80;7.07;;;4.10;99.90;;;;;;5012018;28;20425;-77
2023/04/03 00:18:09;;;;;;;8.93;7.30;;;4.10;99.90;;;;;;5013024;28;20552;-77
2023/04/03 00:20:35;;;;;;;8.50;7.70;;;4.20;99.90;;;;;;5013423;28;20498;-78
2023/04/03 00:23:01;;;;;;;9.13;7.93;;;4.10;99.90;;;;;;5014864;28;20186;-76
2023/04/03 00:25:27;;;;;;;9.70;7.50;;;4.10;99.90;;;;;;5014918;28;20418;-77
2023/04/03 00:27:53;;;;;;;9.07;8.17;;;4.20;99.90;;;;;;5014621;28;20464;-77
2023/04/03 00:30:21;;;;;;;8.60;7.70;;;4.00;99.90;;;;;;5014548;28;20201;-77
2023/04/03 00:32:49;;;;;;;8.57;7.77;;;4.00;99.90;;;;;;5015060;28;21311;-78
2023/04/03 00:35:18;;;;;;;10.80;7.80;;;4.00;99.90;;;;;;5014588;28;20414;-77
2023/04/03 00:37:44;;;;;;;9.70;7.90;;;4.00;99.90;;;;;;5014506;28;20861;-76
2023/04/03 00:40:12;;;;;;;10.50;8.00;;;4.00;99.90;;;;;;5012508;28;20454;-78
2023/04/03 00:42:41;;;;;;;8.73;7.87;;;4.00;99.90;;;;;;5012863;28;20429;-78
2023/04/03 00:45:12;;;;;;;11.60;10.30;;;3.80;99.90;;;;;;5014429;28;20874;-78
2023/04/03 00:47:40;;;;;;;11.07;9.17;;;3.90;99.90;;;;;;5014177;28;20473;-77
2023/04/03 00:50:06;;;;;;;12.00;9.70;;;3.90;99.90;;;;;;5014463;28;20938;-78
2023/04/03 00:52:32;;;;;;;9.80;8.53;;;4.10;99.90;;;;;;5013907;28;20450;-78
2023/04/03 00:55:03;;;;;;;10.13;8.97;;;3.90;99.90;;;;;;5014106;28;20924;-78
2023/04/03 00:57:30;;;;;;;11.50;9.20;;;4.00;99.90;;;;;;5014401;28;20453;-78
2023/04/03 01:00:02;;;;;;;10.27;9.23;;;4.00;99.90;;;;;;5013219;28;20954;-77
2023/04/03 01:02:28;;;;;;;10.80;9.70;;;4.00;99.90;;;;;;5014130;28;20899;-78
2023/04/03 01:04:54;;;;;;;11.50;10.30;;;3.90;99.90;;;;;;5014457;28;20487;-77
2023/04/03 01:07:24;;;;;;;12.33;9.33;;;3.90;99.90;;;;;;5028786;28;20282;-77
2023/04/03 01:09:53;;;;;;;9.80;8.80;;;3.90;99.90;;;;;;5013875;28;20191;-78
2023/04/03 01:12:35;;;;;;;12.33;9.73;;;4.10;99.90;;;;;;5029592;28;20488;-78
2023/04/03 01:15:11;;;;;;;10.30;8.40;;;4.00;99.90;;;;;;5014391;28;21026;-77
2023/04/03 01:17:47;;;;;;;11.17;8.60;;;4.10;99.90;;;;;;5013709;28;20417;-77
2023/04/03 01:20:28;;;;;;;9.07;7.77;;;4.10;99.90;;;;;;5013554;28;20453;-78
2023/04/03 01:23:08;;;;;;;11.80;8.10;;;4.30;99.90;;;;;;5013618;28;21284;-78
2023/04/03 01:25:37;;;;;;;8.07;7.27;;;4.10;99.90;;;;;;4992517;28;20422;-77
2023/04/03 01:28:04;;;;;;;13.00;7.67;;;4.20;99.90;;;;;;4994158;28;20474;-77
2023/04/03 01:30:41;;;;;;;8.70;7.80;;;4.10;99.90;;;;;;4993842;28;20522;-77
2023/04/03 01:33:07;;;;;;;11.03;7.47;;;4.20;99.90;;;;;;4994009;28;20422;-78
2023/04/03 01:35:32;;;;;;;8.37;7.30;;;4.10;99.90;;;;;;5009156;28;20771;-78
2023/04/03 01:37:58;;;;;;;7.83;6.77;;;4.10;99.90;;;;;;4994011;28;20184;-77
2023/04/03 01:40:23;;;;;;;7.10;6.40;;;4.10;99.90;;;;;;4993769;28;20645;-77
2023/04/03 01:42:49;;;;;;;9.50;7.13;;;4.00;99.90;;;;;;4992019;28;20605;-77
2023/04/03 01:45:15;;;;;;;8.03;7.17;;;4.20;99.90;;;;;;5008504;28;20598;-78
2023/04/03 01:47:40;;;;;;;6.70;5.63;;;4.20;99.90;;;;;;5011952;28;20570;-77
2023/04/03 01:50:06;;;;;;;8.97;6.40;;;4.10;99.90;;;;;;5013283;28;20719;-78
2023/04/03 01:52:32;;;;;;;7.53;5.27;;;3.90;99.90;;;;;;5013721;28;20178;-78
2023/04/03 01:54:58;;;;;;;5.53;5.00;;;4.10;99.90;;;;;;5013423;28;20421;-77
2023/04/03 01:57:23;;;;;;;8.70;5.33;;;4.10;99.90;;;;;;5011506;28;20182;-77
2023/04/03 01:59:49;;;;;;;8.40;5.80;;;4.00;99.90;;;;;;5028392;28;20209;-77
2023/04/03 02:02:15;;;;;;;5.60;5.07;;;4.20;99.90;;;;;;5028425;28;20968;-78
2023/04/03 02:04:41;;;;;;;6.37;5.00;;;4.10;99.90;;;;;;5012403;28;20163;-77
2023/04/03 02:07:07;;;;;;;5.20;4.80;;;4.10;99.90;;;;;;5012557;28;20421;-78
2023/04/03 02:09:32;;;;;;;5.27;4.70;;;4.20;99.90;;;;;;5028149;28;20199;-77
2023/04/03 02:11:58;;;;;;;7.50;4.67;;;3.90;99.90;;;;;;5012875;28;20179;-78
2023/04/03 02:14:24;;;;;;;5.03;4.00;;;4.20;99.90;;;;;;5012733;28;20190;-77
2023/04/03 02:16:50;;;;;;;5.03;4.43;;;4.10;99.90;;;;;;5012879;28;20561;-78
2023/04/03 02:19:15;;;;;;;5.27;4.20;;;4.20;99.90;;;;;;5028361;28;20520;-77
2023/04/03 02:21:41;;;;;;;5.20;4.00;;;4.20;99.90;;;;;;5011937;28;20190;-78
2023/04/03 02:24:07;;;;;;;5.83;4.00;;;4.10;99.90;;;;;;5012557;28;20187;-77
2023/04/03 02:26:32;;;;;;;5.70;4.43;;;4.10;99.90;;;;;;5013077;28;20183;-77
2023/04/03 02:28:58;;;;;;;5.43;4.60;;;3.90;99.90;;;;;;5011769;28;20265;-77
2023/04/03 02:31:24;;;;;;;6.03;4.03;;;4.10;99.90;;;;;;5012572;28;20539;-78
2023/04/03 02:33:49;;;;;;;5.40;4.30;;;3.90;99.90;;;;;;5027253;28;20179;-78
2023/04/03 02:36:16;;;;;;;6.50;4.30;;;4.10;99.90;;;;;;5026678;28;20185;-77
2023/04/03 02:38:42;;;;;;;4.20;3.40;;;4.00;99.90;;;;;;5012043;28;20214;-78
2023/04/03 02:41:10;;;;;;;5.40;4.23;;;4.00;99.90;;;;;;5012362;28;20473;-78
2023/04/03 02:43:35;;;;;;;7.03;4.40;;;4.10;99.90;;;;;;4992927;28;20171;-77
2023/04/03 02:46:01;;;;;;;7.07;4.27;;;4.00;99.90;;;;;;4992763;28;20419;-78
2023/04/03 02:48:27;;;;;;;5.60;3.67;;;4.00;99.90;;;;;;4992440;28;20219;-78
2023/04/03 02:50:53;;;;;;;7.20;3.90;;;4.00;99.90;;;;;;4992449;28;20654;-77
2023/04/03 02:53:19;;;;;;;4.40;3.53;;;3.80;99.90;;;;;;5006942;28;20490;-77
2023/04/03 02:55:44;;;;;;;4.30;3.77;;;3.80;99.90;;;;;;4992874;28;20213;-78
2023/04/03 02:58:10;;;;;;;8.13;3.93;;;4.00;99.90;;;;;;4992152;28;20438;-78
2023/04/03 03:00:36;;;;;;;5.27;3.57;;;4.00;99.90;;;;;;4992030;28;20202;-77
2023/04/03 03:03:02;;;;;;;3.63;2.90;;;4.10;99.90;;;;;;5007405;28;20800;-78
2023/04/03 03:05:29;;;;;;;3.20;2.83;;;4.10;99.90;;;;;;4992646;28;20434;-77
2023/04/03 03:07:55;;;;;;;5.17;3.33;;;4.00;99.90;;;;;;4990926;28;20885;-77
2023/04/03 03:10:21;;;;;;;4.40;3.13;;;3.80;99.90;;;;;;4992135;28;20422;-78
2023/04/03 03:12:47;;;;;;;4.23;3.30;;;3.80;99.90;;;;;;5007752;28;20971;-78
2023/04/03 03:15:13;;;;;;;4.70;3.23;;;3.80;99.90;;;;;;5007168;28;20192;-76
2023/04/03 03:17:38;;;;;;;5.17;3.10;;;3.70;99.90;;;;;;5005811;28;20274;-78
2023/04/03 03:20:05;;;;;;;4.20;3.50;;;3.90;99.90;;;;;;4992094;28;20252;-78
2023/04/03 03:22:31;;;;;;;4.40;3.07;;;3.70;99.90;;;;;;5010926;28;20180;-77
2023/04/03 03:24:57;;;;;;;4.47;2.90;;;3.80;99.90;;;;;;5028267;28;20476;-77
2023/04/03 03:27:23;;;;;;;6.80;2.87;;;3.80;99.90;;;;;;5013693;28;20406;-78
2023/04/03 03:29:49;;;;;;;4.43;2.90;;;3.80;99.90;;;;;;5010023;28;20373;-78
2023/04/03 03:32:15;;;;;;;5.70;2.70;;;3.70;99.90;;;;;;5010582;28;20459;-78
2023/04/03 03:34:40;;;;;;;4.73;2.83;;;3.70;99.90;;;;;;5011157;28;20522;-78
2023/04/03 03:37:06;;;;;;;3.90;2.30;;;3.60;99.90;;;;;;5010883;28;20182;-77
2023/04/03 03:39:32;;;;;;;3.80;2.40;;;3.70;99.90;;;;;;5010906;28;20226;-78
2023/04/03 03:41:57;;;;;;;4.53;2.87;;;3.70;99.90;;;;;;5011446;28;20179;-77
2023/04/03 03:44:23;;;;;;;6.57;2.40;;;3.60;99.90;;;;;;5003236;28;20183;-77
2023/04/03 03:46:49;;;;;;;4.93;2.30;;;3.80;99.90;;;;;;4991563;28;20241;-78
2023/04/03 03:49:14;;;;;;;5.00;2.20;;;3.70;99.90;;;;;;4995672;28;20215;-77
2023/04/03 03:51:40;;;;;;;3.60;2.50;;;3.80;99.90;;;;;;5010646;28;20844;-77
2023/04/03 03:54:06;;;;;;;4.73;2.40;;;3.40;99.90;;;;;;4995302;28;20174;-78
2023/04/03 03:56:32;;;;;;;3.53;2.23;;;3.50;99.90;;;;;;4995666;28;20204;-78
2023/04/03 03:58:58;;;;;;;4.60;2.60;;;3.60;99.90;;;;;;5010061;28;20435;-78
2023/04/03 04:01:24;;;;;;;3.73;2.40;;;3.40;99.90;;;;;;4995670;28;20919;-78
2023/04/03 04:03:50;;;;;;;2.43;2.03;;;3.70;99.90;;;;;;4995173;28;20182;-78
2023/04/03 04:06:15;;;;;;;3.63;2.50;;;3.60;99.90;;;;;;5010572;28;20911;-78
2023/04/03 04:08:42;;;;;;;3.30;2.37;;;3.40;99.90;;;;;;5010308;28;20512;-77
2023/04/03 04:11:08;;;;;;;2.03;1.83;;;3.50;99.90;;;;;;5010624;28;20195;-77
2023/04/03 04:13:33;;;;;;;3.17;2.43;;;3.50;99.90;;;;;;4994988;28;20415;-77
2023/04/03 04:15:59;;;;;;;4.57;2.50;;;3.50;99.90;;;;;;4995420;28;20425;-78
2023/04/03 04:18:25;;;;;;;3.90;2.23;;;3.60;99.90;;;;;;5009881;28;20581;-77
2023/04/03 04:20:50;;;;;;;6.50;2.07;;;3.60;99.90;;;;;;4995166;28;20207;-78
2023/04/03 04:23:17;;;;;;;4.43;2.40;;;3.80;99.90;;;;;;4998131;28;20180;-78
2023/04/03 04:25:47;;;;;;;3.00;2.47;;;3.50;99.90;;;;;;5014714;28;20175;-78
2023/04/03 04:28:13;;;;;;;5.00;2.20;;;3.40;99.90;;;;;;5014404;28;20997;-77
2023/04/03 04:30:39;;;;;;;3.93;2.20;;;3.40;99.90;;;;;;5014567;28;20531;-77
2023/04/03 04:33:05;;;;;;;3.20;1.90;;;3.60;99.90;;;;;;5014397;28;20418;-78
2023/04/03 04:35:31;;;;;;;2.50;2.20;;;3.60;99.90;;;;;;5012490;28;20240;-78
2023/04/03 04:37:56;;;;;;;3.33;2.20;;;3.50;99.90;;;;;;5014159;28;20547;-77
2023/04/03 04:40:22;;;;;;;5.57;2.50;;;3.40;99.90;;;;;;5029121;28;20234;-78
2023/04/03 04:42:48;;;;;;;4.27;2.23;;;3.50;99.90;;;;;;5014378;28;20183;-77
2023/04/03 04:45:14;;;;;;;4.13;2.00;;;3.50;99.90;;;;;;5010271;28;20190;-74
2023/04/03 04:47:41;;;;;;;4.60;2.10;;;3.40;99.90;;;;;;5018646;28;20199;-74
2023/04/03 04:50:07;;;;;;;2.30;1.80;;;3.40;99.90;;;;;;5020742;28;20438;-74
2023/04/03 04:52:33;;;;;;;3.30;1.90;;;3.30;99.90;;;;;;5032061;28;20409;-74
2023/04/03 04:54:59;;;;;;;5.20;2.50;;;3.20;99.90;;;;;;5031511;28;20413;-74
2023/04/03 04:57:25;;;;;;;3.43;1.90;;;3.10;99.90;;;;;;5020762;28;20306;-74
2023/04/03 04:59:51;;;;;;;4.67;2.57;;;3.20;99.90;;;;;;4995930;28;20442;-77
2023/04/03 05:02:17;;;;;;;3.97;2.40;;;3.30;99.90;;;;;;5021989;28;20228;-77
2023/04/03 05:04:43;;;;;;;3.47;2.40;;;3.20;99.90;;;;;;5023781;28;20493;-78
2023/04/03 05:07:08;;;;;;;2.83;1.90;;;3.30;99.90;;;;;;5031383;28;20178;-78
2023/04/03 05:09:34;;;;;;;4.90;3.30;;;3.40;99.90;;;;;;5033588;28;20686;-78
2023/04/03 05:11:59;;;;;;;3.10;2.20;;;3.20;99.90;;;;;;5027132;28;20186;-77
2023/04/03 05:14:25;;;;;;;3.10;2.70;;;3.40;99.90;;;;;;5013564;28;20314;-77
2023/04/03 05:16:54;;;;;;;6.07;2.77;;;3.30;99.90;;;;;;5014390;28;20265;-77
2023/04/03 05:19:21;;;;;;;3.83;2.20;;;3.30;99.90;;;;;;5019905;28;20264;-77
2023/04/03 05:21:47;;;;;;;4.27;2.23;;;3.40;99.90;;;;;;5025647;28;20409;-77
2023/04/03 05:24:14;;;;;;;7.77;2.70;;;3.50;99.90;;;;;;5021602;28;20767;-78
2023/04/03 05:26:40;;;;;;;3.40;2.00;;;3.20;99.90;;;;;;5013514;28;20426;-78
2023/04/03 05:29:06;;;;;;;3.60;2.00;;;3.30;99.90;;;;;;4995034;28;20503;-77
2023/04/03 05:31:31;;;;;;;3.27;2.13;;;3.30;99.90;;;;;;5013051;28;20505;-76
2023/04/03 05:33:57;;;;;;;8.37;2.53;;;3.20;99.90;;;;;;5012790;28;20179;-77
2023/04/03 05:36:23;;;;;;;3.73;1.80;;;3.40;99.90;;;;;;5023409;28;20175;-77
2023/04/03 05:38:49;;;;;;;6.17;2.70;;;3.20;99.90;;;;;;5026156;28;20870;-77
2023/04/03 05:41:15;;;;;;;3.47;2.07;;;3.30;99.90;;;;;;5022060;28;20205;-77
2023/04/03 05:43:41;;;;;;;4.67;2.30;;;3.40;99.90;;;;;;5012696;28;20202;-78
2023/04/03 05:46:11;;;;;;;4.40;2.63;;;3.20;99.90;;;;;;5020602;28;20419;-77
2023/04/03 05:48:37;;;;;;;3.43;2.30;;;3.40;99.90;;;;;;5030184;28;20816;-77
2023/04/03 05:51:04;;;;;;;4.67;3.03;;;3.30;99.90;;;;;;5012271;28;20493;-78
2023/04/03 05:53:32;;;;;;;7.37;3.20;;;3.50;99.90;;;;;;5012473;28;20210;-77
2023/04/03 05:55:58;;;;;;;4.60;2.80;;;3.30;99.90;;;;;;5012412;28;20791;-77
2023/04/03 05:58:23;;;;;;;3.83;2.57;;;3.50;99.90;;;;;;5011133;28;20429;-77
2023/04/03 06:00:49;;;;;;;6.27;2.80;;;3.30;99.90;;;;;;5012388;28;20701;-77
2023/04/03 06:03:15;;;;;;;4.77;2.70;;;3.50;99.90;;;;;;5022268;28;20213;-77
2023/04/03 06:05:41;;;;;;;4.80;2.40;;;3.70;99.90;;;;;;5032182;28;20602;-77
2023/04/03 06:08:07;;;;;;;6.13;3.13;;;3.90;99.90;;;;;;5030391;28;20217;-77
2023/04/03 06:10:33;;;;;;;4.40;3.13;;;4.00;99.90;;;;;;5031114;28;20429;-78
2023/04/03 06:12:58;;;;;;;5.00;3.50;;;4.10;99.90;;;;;;5030852;28;20207;-77
2023/04/03 06:15:24;;;;;;;2.67;2.43;;;4.30;99.90;;;;;;5019587;28;20453;-77
2023/04/03 06:17:50;;;;;;;5.20;2.50;;;4.50;99.90;;;;;;5020525;28;20218;-78
2023/04/03 06:20:17;;;;;;;3.07;2.10;;;4.30;99.90;;;;;;5019110;28;20446;-79
2023/04/03 06:22:43;;;;;;;2.97;2.57;;;4.40;99.90;;;;;;5018097;28;20240;-78
2023/04/03 06:25:09;;;;;;;3.57;2.50;;;4.60;99.90;;;;;;5003589;28;21180;-78
2023/04/03 06:27:35;;;;;;;4.20;2.33;;;4.80;99.90;;;;;;5014007;28;20566;-78
2023/04/03 06:30:01;;;;;;;5.10;2.70;;;4.80;99.90;;;;;;5010013;28;20422;-78
2023/04/03 06:32:27;;;;;;;5.00;2.67;;;5.10;99.90;;;;;;5023487;28;20175;-78
2023/04/03 06:34:53;;;;;;;5.20;2.83;;;5.30;99.90;;;;;;5011381;28;20199;-78
2023/04/03 06:37:21;;;;;;;6.63;2.47;;;5.30;99.90;;;;;;5009985;28;20832;-78
2023/04/03 06:39:47;;;;;;;5.50;2.97;;;5.40;99.90;;;;;;5010237;28;20718;-78
2023/04/03 06:42:13;;;;;;;5.53;2.63;;;5.60;99.90;;;;;;5025919;28;20422;-78
2023/04/03 06:44:39;;;;;;;4.17;3.50;;;5.80;99.90;;;;;;5000734;28;20425;-77
2023/04/03 06:47:05;;;;;;;5.33;2.93;;;5.70;99.90;;;;;;5008931;28;20217;-78
2023/04/03 06:49:31;;;;;;;4.60;2.70;;;5.80;99.90;;;;;;5000243;28;20454;-77
2023/04/03 06:51:57;;;;;;;4.50;2.60;;;5.60;99.90;;;;;;5015208;28;20489;-78
2023/04/03 06:54:23;;;;;;;4.07;2.90;;;5.50;99.90;;;;;;5014051;28;20418;-78
2023/04/03 06:56:50;;;;;;;4.07;2.60;;;5.60;99.90;;;;;;5010424;28;20501;-77
2023/04/03 06:59:15;;;;;;;4.83;2.63;;;6.00;99.90;;;;;;5010090;28;20706;-77
2023/04/03 07:01:41;;;;;;;4.40;2.00;;;5.90;99.90;;;;;;5025736;28;20410;-77
2023/04/03 07:04:07;;;;;;;6.67;3.00;;;5.90;99.90;;;;;;5010696;28;20240;-77
2023/04/03 07:06:34;;;;;;;5.93;2.83;;;6.10;99.90;;;;;;5009677;28;20476;-78
2023/04/03 07:09:00;;;;;;;5.20;2.60;;;6.10;99.90;;;;;;5025453;28;20465;-77
2023/04/03 07:11:27;;;;;;;6.77;2.20;;;6.10;99.90;;;;;;5025623;28;20406;-77
2023/04/03 07:13:53;;;;;;;4.43;1.70;;;5.90;99.90;;;;;;5025589;28;20222;-77
2023/04/03 07:16:19;;;;;;;3.20;2.00;;;6.10;99.90;;;;;;5010451;28;20422;-77
2023/04/03 07:18:45;;;;;;;2.93;2.10;;;6.10;99.90;;;;;;5025117;28;20441;-77
2023/04/03 07:21:11;;;;;;;3.13;1.90;;;6.10;99.90;;;;;;5010084;28;20422;-78
2023/04/03 07:23:37;;;;;;;2.20;2.00;;;6.00;99.90;;;;;;5006016;28;20420;-77
2023/04/03 07:26:03;;;;;;;3.30;2.40;;;6.00;99.90;;;;;;5010422;28;20218;-78
2023/04/03 07:28:29;;;;;;;4.53;2.47;;;6.10;99.90;;;;;;5009814;28;20462;-77
2023/04/03 07:31:03;;;;;;;3.73;2.20;;;6.10;99.90;;;;;;5010240;28;20417;-77
2023/04/03 07:33:30;;;;;;;4.07;2.00;;;6.10;99.90;;;;;;5009861;28;20563;-78
2023/04/03 07:35:56;;;;;;;2.63;1.50;;;6.40;99.90;;;;;;5010172;28;20497;-78
2023/04/03 07:38:22;;;;;;;8.10;2.33;;;6.10;99.90;;;;;;5009913;28;20501;-78
2023/04/03 07:40:49;;;;;;;2.50;2.03;;;6.20;99.90;;;;;;5009996;28;20191;-77
2023/04/03 07:43:18;;;;;;;3.40;1.93;;;6.20;99.90;;;;;;5009811;28;20418;-78
2023/04/03 07:45:44;;;;;;;3.50;1.83;;;6.50;99.90;;;;;;5009670;28;20426;-78
2023/04/03 07:48:11;;;;;;;2.67;1.90;;;6.30;99.90;;;;;;5008827;28;20466;-78
2023/04/03 07:50:37;;;;;;;2.77;1.57;;;6.40;99.90;;;;;;5009867;28;20438;-78
2023/04/03 07:53:03;;;;;;;4.40;2.20;;;6.30;99.90;;;;;;5010235;28;20414;-77
2023/04/03 07:55:29;;;;;;;5.30;2.20;;;6.20;99.90;;;;;;5010964;28;20175;-78
2023/04/03 07:57:55;;;;;;;6.33;2.33;;;6.50;99.90;;;;;;5009335;28;20480;-78
2023/04/03 08:00:21;;;;;;;4.87;1.73;;;6.20;99.90;;;;;;5010319;28;20267;-78
2023/04/03 08:02:51;;;;;;;3.00;1.90;;;6.20;99.90;;;;;;5010661;28;21367;-78
2023/04/03 08:05:21;;;;;;;10.20;3.10;;;6.20;99.90;;;;;;5010627;28;20417;-78
2023/04/03 08:07:47;;;;;;;4.13;1.57;;;6.30;99.90;;;;;;5010556;28;20450;-78
2023/04/03 08:10:14;;;;;;;3.70;1.63;;;6.10;99.90;;;;;;5025775;28;20544;-78
2023/04/03 08:12:39;;;;;;;3.80;1.70;;;6.00;99.90;;;;;;5026309;28;20480;-78
2023/04/03 08:15:07;;;;;;;3.40;1.60;;;6.00;99.90;;;;;;5013121;28;20419;-78
2023/04/03 08:17:32;;;;;;;5.47;1.77;;;6.10;99.90;;;;;;5014226;28;20187;-78
2023/04/03 08:19:58;;;;;;;5.90;2.10;;;6.20;99.90;;;;;;5011856;28;20434;-77
2023/04/03 08:22:24;;;;;;;2.97;1.60;;;6.00;99.90;;;;;;5011254;28;20530;-77
2023/04/03 08:24:50;;;;;;;4.03;1.67;;;6.10;99.90;;;;;;5021925;28;20180;-78
2023/04/03 08:27:16;;;;;;;5.93;1.80;;;6.10;99.90;;;;;;5010649;28;20440;-78
2023/04/03 08:29:41;;;;;;;6.20;1.93;;;6.20;99.90;;;;;;5010402;28;20481;-78
2023/04/03 08:32:07;;;;;;;3.53;1.47;;;6.20;99.90;;;;;;5026028;28;20187;-78
2023/04/03 08:34:34;;;;;;;5.10;2.30;;;6.30;99.90;;;;;;5012313;28;20257;-78
2023/04/03 08:37:01;;;;;;;3.50;1.67;;;6.20;99.90;;;;;;5012914;28;20171;-78
2023/04/03 08:39:27;;;;;;;3.70;1.87;;;6.10;99.90;;;;;;5012885;28;20445;-78
2023/04/03 08:41:57;;;;;;;4.03;1.67;;;6.30;99.90;;;;;;5014763;28;20414;-77
2023/04/03 08:44:47;;;;;;;3.37;1.77;;;6.20;99.90;;;;;;5006544;28;20422;-77
2023/04/03 08:47:29;;;;;;;4.93;1.50;;;6.10;99.90;;;;;;5009611;28;20454;-78
2023/04/03 08:49:59;;;;;;;3.23;1.60;;;6.10;99.90;;;;;;4993518;28;21180;-77
2023/04/03 08:52:39;;;;;;;4.90;1.80;;;6.30;99.90;;;;;;4994876;28;20399;-77
2023/04/03 08:55:16;;;;;;;5.50;1.67;;;6.20;99.90;;;;;;5009715;28;20409;-78
2023/04/03 08:57:44;;;;;;;3.60;1.87;;;6.30;99.90;;;;;;5009685;28;20597;-78
2023/04/03 09:00:22;;;;;;;2.30;1.50;;;6.20;99.90;;;;;;5009198;28;20827;-78
2023/04/03 09:02:48;;;;;;;2.53;1.43;;;6.20;99.90;;;;;;4994480;28;20423;-77
2023/04/03 09:05:23;;;;;;;3.93;1.70;;;6.20;99.90;;;;;;5009748;28;20407;-78
2023/04/03 09:08:26;;;;;;;3.57;1.30;;;6.20;99.90;;;;;;4993836;28;20466;-78
2023/04/03 09:11:16;;;;;;;2.53;1.33;;;6.40;99.90;;;;;;4994473;28;20520;-77
2023/04/03 09:14:12;;;;;;;5.00;1.80;;;6.40;99.90;;;;;;4994180;28;20408;-78
2023/04/03 09:16:57;;;;;;;4.20;1.60;;;6.60;99.90;;;;;;4994780;28;20405;-78
2023/04/03 09:19:42;;;;;;;3.70;1.30;;;6.80;99.90;;;;;;4994377;28;20430;-78
2023/04/03 09:22:13;;;;;;;3.00;1.40;;;6.70;99.90;;;;;;4994609;28;20425;-79
2023/04/03 09:24:40;;;;;;;4.43;1.90;;;6.90;99.90;;;;;;5008744;28;20450;-78
2023/04/03 09:27:09;;;;;;;2.70;1.60;;;6.80;99.90;;;;;;5028897;28;20805;-79
2023/04/03 09:29:39;;;;;;;2.30;1.33;;;6.90;99.50;;;;;;5012343;28;20468;-78
2023/04/03 09:32:36;;;;;;;2.17;1.43;;;7.00;99.50;;;;;;5014086;28;20468;-78
2023/04/03 09:35:28;;;;;;;2.27;1.27;;;7.40;99.00;;;;;;5013588;28;20411;-78
2023/04/03 09:37:59;;;;;;;4.10;1.70;;;7.40;98.00;;;;;;5029261;28;20985;-79
2023/04/03 09:40:25;;;;;;;3.50;1.67;;;7.70;97.70;;;;;;5012525;28;20508;-78
2023/04/03 09:42:58;;;;;;;3.20;1.40;;;7.60;98.20;;;;;;5013795;28;20414;-78
2023/04/03 09:45:32;;;;;;;3.83;1.90;;;7.50;96.00;;;;;;4997042;28;20642;-78
2023/04/03 09:48:14;;;;;;;2.27;1.30;;;7.60;94.80;;;;;;4993883;28;20460;-78
2023/04/03 09:50:55;;;;;;;2.20;1.40;;;7.70;94.80;;;;;;4993972;28;20431;-78
2023/04/03 09:53:43;;;;;;;2.93;1.30;;;8.00;97.00;;;;;;4993868;28;20418;-77
2023/04/03 09:56:30;;;;;;;3.50;1.80;;;8.00;93.70;;;;;;5009564;28;20490;-79
2023/04/03 09:58:58;;;;;;;3.27;1.50;;;8.00;94.50;;;;;;5009333;28;20423;-78
2023/04/03 10:01:28;;;;;;;2.87;1.63;;;8.10;94.90;;;;;;5011050;28;20407;-79
2023/04/03 10:04:03;;;;;;;4.97;1.67;;;8.20;95.70;;;;;;5012434;28;20443;-79
2023/04/03 10:06:32;;;;;;;2.27;1.20;;;8.10;94.10;;;;;;4996564;28;20399;-78
2023/04/03 10:09:16;;;;;;;2.90;1.10;;;8.40;94.90;;;;;;4993690;28;20462;-79
2023/04/03 10:12:05;;;;;;;3.53;1.80;;;8.50;95.40;;;;;;4995061;28;20411;-77
2023/04/03 10:14:40;;;;;;;2.07;1.13;;;8.60;96.10;;;;;;4993794;28;20418;-79
2023/04/03 10:17:21;;;;;;;3.37;1.60;;;8.60;94.30;;;;;;4992460;28;20770;-78
2023/04/03 10:20:07;;;;;;;3.70;1.50;;;8.80;94.70;;;;;;5008975;28;20449;-79
2023/04/03 10:22:54;;;;;;;3.77;1.30;;;8.70;92.20;;;;;;5008869;28;20414;-79
2023/04/03 10:25:26;;;;;;;1.77;1.30;;;8.90;93.40;;;;;;4993414;28;20415;-78
2023/04/03 10:28:20;;;;;;;5.33;1.70;;;8.90;94.70;;;;;;4992058;28;20451;-78
2023/04/03 10:31:01;;;;;;;2.53;1.43;;;8.90;93.80;;;;;;4993776;28;20587;-79
2023/04/03 10:34:08;;;;;;;3.70;1.20;;;8.80;92.90;;;;;;4993189;28;20494;-78
2023/04/03 10:36:44;;;;;;;1.83;1.43;;;9.00;91.70;;;;;;4982467;28;21121;-79
2023/04/03 10:39:16;;;;;;;2.30;1.33;;;9.00;92.00;;;;;;4975814;28;20454;-79
2023/04/03 10:42:18;;;;;;;2.57;1.33;;;8.90;92.00;;;;;;4993610;28;20422;-78
2023/04/03 10:44:46;;;;;;;3.47;1.20;;;8.90;93.10;;;;;;4991462;28;20429;-78
2023/04/03 10:47:21;;;;;;;3.50;1.63;;;9.10;92.90;;;;;;4991940;28;20975;-78
2023/04/03 10:49:59;;;;;;;1.70;1.37;;;9.20;93.30;;;;;;4992563;28;20486;-79
2023/04/03 10:53:00;;;;;;;3.10;1.50;;;9.10;93.00;;;;;;4991527;28;20411;-79
2023/04/03 10:55:33;;;;;;;3.00;1.50;;;9.10;93.80;;;;;;4984899;28;20773;-78
2023/04/03 10:58:01;;;;;;;2.37;1.33;;;9.40;90.80;;;;;;4992717;28;20418;-79
2023/04/03 11:00:48;;;;;;;2.63;1.37;;;9.30;91.60;;;;;;4991393;28;20449;-78
2023/04/03 11:03:30;;;;;;;4.93;1.30;;;9.30;92.40;;;;;;4992110;28;20473;-78
2023/04/03 11:05:59;;;;;;;2.03;1.57;;;9.40;90.70;;;;;;4993103;28;20505;-78
2023/04/03 11:08:54;;;;;;;3.90;1.00;;;9.40;88.60;;;;;;4991415;28;20983;-78
2023/04/03 11:11:35;;;;;;;1.60;1.30;;;9.40;91.00;;;;;;5005440;28;20468;-79
2023/04/03 11:14:02;;;;;;;4.63;1.50;;;9.60;90.90;;;;;;5011657;28;20416;-79
2023/04/03 11:16:33;;;;;;;4.57;1.23;;;9.60;89.40;;;;;;5012129;28;20421;-78
2023/04/03 11:19:21;;;;;;;1.93;1.03;;;9.70;90.30;;;;;;5011967;28;20430;-79
2023/04/03 11:22:09;;;;;;;2.77;1.60;;;9.60;89.40;;;;;;5010592;28;20508;-78
2023/04/03 11:24:39;;;;;;;1.80;0.97;;;9.60;85.80;;;;;;5011640;28;20410;-78
2023/04/03 11:27:08;;;;;;;2.10;1.33;;;9.60;90.10;;;;;;4994294;28;20781;-78
2023/04/03 11:29:40;;;;;;;2.40;1.43;;;9.70;85.70;;;;;;5011649;28;20483;-79
2023/04/03 11:32:30;;;;;;;1.33;1.00;;;9.70;85.60;;;;;;5011910;28;20414;-79
2023/04/03 11:34:59;;;;;;;3.93;1.40;;;9.60;85.40;;;;;;5012084;28;20421;-78
2023/04/03 11:37:35;;;;;;;2.20;1.10;;;9.70;87.00;;;;;;5010904;28;20894;-78
2023/04/03 11:40:19;;;;;;;3.47;1.47;;;9.70;87.60;;;;;;5010881;28;20482;-78
2023/04/03 11:42:53;;;;;;;4.47;1.40;;;9.80;88.90;;;;;;4993791;28;20414;-78
2023/04/03 11:45:22;;;;;;;2.10;1.37;;;9.80;80.30;;;;;;5010337;28;20513;-78
2023/04/03 11:47:58;;;;;;;1.33;1.00;;;9.80;82.00;;;;;;5025736;28;20458;-77
2023/04/03 11:50:41;;;;;;;2.13;1.00;;;9.90;84.30;;;;;;5010912;28;20430;-77
2023/04/03 11:53:07;;;;;;;1.17;0.87;;;9.90;81.10;;;;;;5011093;28;20859;-78
2023/04/03 11:55:33;;;;;;;1.53;0.93;;;10.00;84.00;;;;;;5011114;28;20456;-78
2023/04/03 11:57:59;;;;;;;1.43;1.10;;;10.00;77.60;;;;;;5011536;28;20440;-78
2023/04/03 12:00:44;;;;;;;1.77;1.20;;;10.00;81.10;;;;;;5011387;28;20434;-78
2023/04/03 12:03:26;;;;;;;3.40;1.30;;;10.00;76.50;;;;;;5011914;28;20175;-78
2023/04/03 12:05:57;;;;;;;2.10;1.00;;;10.00;76.30;;;;;;5026990;28;20837;-78
2023/04/03 12:08:28;;;;;;;2.70;1.40;;;9.90;76.10;;;;;;5012356;28;20561;-78
2023/04/03 12:11:30;;;;;;;2.20;1.37;;;9.80;75.40;;;;;;5014331;28;20774;-78
2023/04/03 12:13:55;;;;;;;1.37;1.00;;;9.80;76.60;;;;;;5003719;28;20978;-78
2023/04/03 12:16:41;;;;;;;2.37;1.27;;;9.80;76.70;;;;;;5031060;28;20449;-77
2023/04/03 12:19:26;;;;;;;1.50;1.10;;;9.80;77.70;;;;;;5014723;28;20567;-78
2023/04/03 12:21:57;;;;;;;5.20;1.97;;;10.00;78.50;;;;;;5016513;28;20418;-78
2023/04/03 12:24:32;;;;;;;2.03;1.20;;;9.90;80.20;;;;;;5030790;28;21035;-79
2023/04/03 12:27:00;;;;;;;3.90;1.13;;;10.00;81.80;;;;;;5014186;28;20496;-78
2023/04/03 12:29:35;;;;;;;2.03;1.23;;;10.10;76.40;;;;;;5014901;28;20976;-78
2023/04/03 12:32:06;;;;;;;3.00;1.40;;;10.00;75.10;;;;;;5015532;28;20413;-78
2023/04/03 12:35:09;;;;;;;2.10;1.50;;;10.00;75.00;;;;;;5015103;28;20493;-78
2023/04/03 12:38:02;;;;;;;2.43;1.10;;;10.00;79.70;;;;;;5015084;28;20417;-78
2023/04/03 12:40:41;;;;;;;2.27;1.30;;;10.10;76.90;;;;;;5030167;28;20489;-78
2023/04/03 12:43:25;;;;;;;1.83;1.13;;;10.00;77.40;;;;;;5015192;28;20417;-78
2023/04/03 12:45:55;;;;;;;1.63;0.90;;;10.20;82.70;;;;;;5015334;28;20402;-78
2023/04/03 12:48:25;;;;;;;1.60;0.93;;;10.20;79.10;;;;;;5014666;28;20450;-78
2023/04/03 12:50:52;;;;;;;2.27;1.40;;;10.10;75.10;;;;;;5014590;28;20414;-78
2023/04/03 12:53:33;;;;;;;3.10;1.03;;;10.00;76.10;;;;;;5014574;28;20464;-78
2023/04/03 12:56:29;;;;;;;3.00;1.37;;;10.00;73.10;;;;;;5013688;28;20414;-78
2023/04/03 12:59:14;;;;;;;1.77;1.30;;;10.00;75.90;;;;;;5011676;28;20460;-78
2023/04/03 13:01:40;;;;;;;1.70;1.07;;;10.00;77.30;;;;;;5014311;28;20410;-78
2023/04/03 13:04:06;;;;;;;1.40;1.10;;;10.00;79.70;;;;;;5013132;28;20414;-78
2023/04/03 13:06:38;;;;;;;2.23;1.53;;;10.10;78.60;;;;;;5012801;28;20754;-78
2023/04/03 13:09:05;;;;;;;1.77;1.03;;;10.10;75.00;;;;;;5013095;28;20548;-78
2023/04/03 13:11:36;;;;;;;2.73;1.20;;;10.10;80.30;;;;;;5014480;28;20537;-78